Aviation Digital Data Service (ADDS)

Output produced by METARs form (0555 UTC 08 February 2016)
found at http://www.aviationweather.gov/adds/metars/
 
KDOV 080458Z AUTO 34016KT 10SM CLR 03/00 A2978 RMK AO2 SLP088 T00331005 400661035 VISNO RWY19 CHINO RWY19 $
TAF KDOV 080000Z 0800/0906 36009KT 9999 BKN150 QNH2985INS 
     BECMG 0802/0803 36012KT 9999 SCT020 BKN100 QNH2975INS 
     TEMPO 0803/0807 01012G18KT 
     BECMG 0808/0809 36012KT 9999 BKN020 OVC100 620202 QNH2974INS 
     BECMG 0810/0811 36012KT 9999 OVC015 620153 QNH2973INS 
     BECMG 0822/0823 10012KT 4800 -SN OVC010 620109 QNH2963INS TX06/0817Z TNM01/0900Z